Time;durP1;ratioP1;P1;durP2;ratioP2;P2;SDS_P1;SDS_P2;PMS_P1;PMS_P2;Temp;Humidity;BMP_temperature;BMP_pressure;BME280_temperature;BME280_humidity;BME280_pressure;Samples;Min_cycle;Max_cycle;Signal;HPM_P1;HPM_P2
2023/09/26 00:00:01;;;;;;;4.43;1.25;;;14.10;99.90;;;;;;5095608;28;20453;-72
2023/09/26 00:02:26;;;;;;;4.03;1.63;;;14.00;99.90;;;;;;5095437;28;20031;-72
2023/09/26 00:04:52;;;;;;;3.17;1.33;;;13.90;99.90;;;;;;5096061;28;20036;-72
2023/09/26 00:07:17;;;;;;;3.00;1.33;;;13.90;99.90;;;;;;5095332;28;20497;-72
2023/09/26 00:09:43;;;;;;;5.10;1.35;;;14.20;99.90;;;;;;5095494;28;20054;-72
2023/09/26 00:12:09;;;;;;;5.75;1.60;;;14.50;99.90;;;;;;5095403;28;20089;-72
2023/09/26 00:14:34;;;;;;;3.90;1.38;;;13.80;99.90;;;;;;5077161;28;20016;-72
2023/09/26 00:17:00;;;;;;;3.45;1.48;;;13.80;99.90;;;;;;5095229;28;20024;-72
2023/09/26 00:19:25;;;;;;;5.00;1.92;;;13.80;99.90;;;;;;5095336;28;20027;-72
2023/09/26 00:21:51;;;;;;;4.85;2.47;;;13.80;99.90;;;;;;5095172;28;20044;-72
2023/09/26 00:24:17;;;;;;;3.38;1.42;;;13.80;99.90;;;;;;5095618;28;20028;-72
2023/09/26 00:26:42;;;;;;;3.63;1.35;;;13.70;99.90;;;;;;5095138;28;20035;-72
2023/09/26 00:29:09;;;;;;;5.60;2.20;;;13.60;99.90;;;;;;5095558;28;20131;-72
2023/09/26 00:31:34;;;;;;;4.97;1.73;;;13.60;99.90;;;;;;5094947;28;20019;-72
2023/09/26 00:34:00;;;;;;;4.57;1.55;;;13.60;99.90;;;;;;5077012;28;20513;-72
2023/09/26 00:36:25;;;;;;;4.10;1.80;;;13.60;99.90;;;;;;5094982;28;20040;-72
2023/09/26 00:38:51;;;;;;;3.17;1.83;;;13.50;99.90;;;;;;5095392;28;20383;-72
2023/09/26 00:41:16;;;;;;;5.50;1.70;;;13.50;99.90;;;;;;5095028;28;20032;-72
2023/09/26 00:43:42;;;;;;;5.40;2.20;;;13.50;99.90;;;;;;5094145;28;20460;-72
2023/09/26 00:46:10;;;;;;;4.25;2.60;;;13.50;99.90;;;;;;5094832;28;20031;-72
2023/09/26 00:48:36;;;;;;;4.45;2.75;;;13.50;99.90;;;;;;5094610;28;20493;-72
2023/09/26 00:51:02;;;;;;;6.10;3.10;;;13.60;99.90;;;;;;5094641;28;20095;-72
2023/09/26 00:53:29;;;;;;;4.47;2.28;;;13.50;99.90;;;;;;5076490;28;20051;-72
2023/09/26 00:55:57;;;;;;;4.32;2.05;;;13.50;99.90;;;;;;5094388;28;20056;-72
2023/09/26 00:58:25;;;;;;;8.82;3.38;;;13.60;99.90;;;;;;5095110;28;20028;-72
2023/09/26 01:00:53;;;;;;;6.82;3.78;;;13.60;99.90;;;;;;5076082;28;20028;-72
2023/09/26 01:03:19;;;;;;;8.63;3.45;;;13.60;99.90;;;;;;5094861;28;20058;-72
2023/09/26 01:05:44;;;;;;;5.53;3.40;;;13.70;99.90;;;;;;5076049;28;20078;-72
2023/09/26 01:08:10;;;;;;;9.13;3.92;;;13.80;99.90;;;;;;5094811;28;20084;-72
2023/09/26 01:10:36;;;;;;;6.35;3.63;;;13.80;99.90;;;;;;5094225;28;20016;-72
2023/09/26 01:13:02;;;;;;;5.15;3.15;;;13.80;99.90;;;;;;5094169;28;20365;-72
2023/09/26 01:15:39;;;;;;;8.45;3.65;;;13.90;99.90;;;;;;5094261;28;20463;-72
2023/09/26 01:18:16;;;;;;;9.38;4.63;;;13.90;99.90;;;;;;5093916;28;20157;-72
2023/09/26 01:20:44;;;;;;;6.05;3.92;;;13.90;99.90;;;;;;5094068;28;20494;-71
2023/09/26 01:23:14;;;;;;;7.88;3.83;;;14.00;99.90;;;;;;5094155;28;20095;-72
2023/09/26 01:25:41;;;;;;;13.57;4.38;;;14.10;99.90;;;;;;5094022;28;20024;-72
2023/09/26 01:28:08;;;;;;;8.25;4.15;;;14.20;99.90;;;;;;5093916;28;20052;-72
2023/09/26 01:30:35;;;;;;;7.95;4.82;;;14.20;99.90;;;;;;5093944;28;20130;-72
2023/09/26 01:33:08;;;;;;;7.70;4.50;;;14.30;99.90;;;;;;5075608;28;20051;-72
2023/09/26 01:35:34;;;;;;;7.75;4.93;;;14.30;99.90;;;;;;5093907;28;20093;-72
2023/09/26 01:38:00;;;;;;;8.02;4.70;;;14.40;99.90;;;;;;5093949;28;20012;-72
2023/09/26 01:40:25;;;;;;;9.70;4.93;;;14.40;99.90;;;;;;5093949;28;20032;-72
2023/09/26 01:42:51;;;;;;;8.07;4.82;;;14.40;99.90;;;;;;5093813;28;20491;-72
2023/09/26 01:45:17;;;;;;;7.30;4.38;;;14.50;99.90;;;;;;5094094;28;20028;-72
2023/09/26 01:47:50;;;;;;;7.32;4.53;;;14.50;99.90;;;;;;5075620;28;20056;-72
2023/09/26 01:50:18;;;;;;;7.35;4.60;;;14.50;99.90;;;;;;5093774;28;20368;-72
2023/09/26 01:52:44;;;;;;;7.45;4.60;;;14.50;99.90;;;;;;5093534;28;20096;-72
2023/09/26 01:55:18;;;;;;;8.23;5.32;;;14.50;99.90;;;;;;5093411;28;20035;-72
2023/09/26 01:57:44;;;;;;;9.48;4.15;;;14.50;99.90;;;;;;5094259;28;20059;-72
2023/09/26 02:00:11;;;;;;;8.52;5.07;;;14.50;99.90;;;;;;5093820;28;20495;-72
2023/09/26 02:02:40;;;;;;;6.82;5.15;;;14.50;99.90;;;;;;5093715;28;20475;-72
2023/09/26 02:05:08;;;;;;;8.63;5.00;;;14.50;99.90;;;;;;5093486;28;20031;-72
2023/09/26 02:07:33;;;;;;;9.60;4.88;;;14.50;99.90;;;;;;5093622;28;20028;-71
2023/09/26 02:10:03;;;;;;;10.82;5.03;;;14.60;99.90;;;;;;5093270;28;20020;-72
2023/09/26 02:12:30;;;;;;;10.13;4.78;;;14.60;99.90;;;;;;5093831;28;20016;-72
2023/09/26 02:14:55;;;;;;;12.75;5.57;;;14.60;99.90;;;;;;5093365;28;20059;-72
2023/09/26 02:17:21;;;;;;;8.68;5.45;;;14.60;99.90;;;;;;5093589;28;20054;-72
2023/09/26 02:19:47;;;;;;;9.55;5.85;;;14.60;99.90;;;;;;5093436;28;20035;-72
2023/09/26 02:22:12;;;;;;;9.40;4.80;;;14.60;99.90;;;;;;5093375;28;20035;-72
2023/09/26 02:24:38;;;;;;;11.82;5.03;;;14.60;99.90;;;;;;5093323;28;20471;-72
2023/09/26 02:27:03;;;;;;;15.00;6.07;;;14.60;99.90;;;;;;5093666;28;20035;-72
2023/09/26 02:29:29;;;;;;;7.13;4.65;;;14.60;99.90;;;;;;5075180;28;20390;-72
2023/09/26 02:31:54;;;;;;;9.38;4.40;;;14.50;99.90;;;;;;5075258;28;20019;-72
2023/09/26 02:34:22;;;;;;;13.55;5.82;;;14.50;99.90;;;;;;5093273;28;20107;-72
2023/09/26 02:36:48;;;;;;;7.65;4.38;;;14.40;99.90;;;;;;5093327;28;20439;-72
2023/09/26 02:39:17;;;;;;;10.00;5.15;;;14.30;99.90;;;;;;5093276;28;20052;-72
2023/09/26 02:41:43;;;;;;;9.63;5.15;;;14.30;99.90;;;;;;5093427;28;20020;-72
2023/09/26 02:44:08;;;;;;;9.50;4.75;;;14.20;99.90;;;;;;5093219;28;20103;-72
2023/09/26 02:46:34;;;;;;;8.10;5.28;;;14.20;99.90;;;;;;5093350;28;20479;-72
2023/09/26 02:49:00;;;;;;;8.85;4.88;;;14.10;99.90;;;;;;5093418;28;20035;-72
2023/09/26 02:51:26;;;;;;;8.45;4.22;;;14.10;99.90;;;;;;5093117;28;20016;-72
2023/09/26 02:53:52;;;;;;;8.70;4.20;;;14.10;99.90;;;;;;5092874;28;20122;-72
2023/09/26 02:56:17;;;;;;;9.82;5.13;;;14.10;99.90;;;;;;5093171;28;20036;-71
2023/09/26 02:58:45;;;;;;;9.73;5.10;;;14.10;99.90;;;;;;5093165;28;20035;-72
2023/09/26 03:01:19;;;;;;;9.35;5.63;;;14.00;99.90;;;;;;5093013;28;20024;-72
2023/09/26 03:03:44;;;;;;;11.13;4.95;;;14.00;99.90;;;;;;5074510;28;20055;-72
2023/09/26 03:06:10;;;;;;;9.00;4.88;;;14.00;99.90;;;;;;5092966;28;20013;-72
2023/09/26 03:08:35;;;;;;;8.63;4.75;;;13.90;99.90;;;;;;5096421;28;20059;-72
2023/09/26 03:11:02;;;;;;;11.15;5.18;;;13.90;99.90;;;;;;5096684;28;20035;-72
2023/09/26 03:13:32;;;;;;;11.02;5.85;;;13.80;99.90;;;;;;5097257;28;20100;-72
2023/09/26 03:15:58;;;;;;;10.77;5.10;;;13.90;99.90;;;;;;5096442;28;20530;-71
2023/09/26 03:18:25;;;;;;;9.32;4.88;;;13.80;99.90;;;;;;5096574;28;20028;-72
2023/09/26 03:20:50;;;;;;;8.98;4.80;;;13.70;99.90;;;;;;5096362;28;20027;-72
2023/09/26 03:23:16;;;;;;;9.63;5.72;;;13.70;99.90;;;;;;5096300;28;20024;-72
2023/09/26 03:25:41;;;;;;;10.00;5.50;;;13.70;99.90;;;;;;5096195;28;20114;-72
2023/09/26 03:28:09;;;;;;;10.40;6.30;;;13.60;99.90;;;;;;5096781;28;20081;-72
2023/09/26 03:30:35;;;;;;;7.97;4.87;;;13.50;99.90;;;;;;5096153;28;20509;-72
2023/09/26 03:33:00;;;;;;;6.80;4.55;;;13.50;99.90;;;;;;5096197;28;20016;-72
2023/09/26 03:35:26;;;;;;;10.23;5.72;;;13.50;99.90;;;;;;5095883;28;20478;-72
2023/09/26 03:37:52;;;;;;;15.52;6.10;;;13.50;99.90;;;;;;5096453;28;20537;-72
2023/09/26 03:40:17;;;;;;;8.95;5.65;;;13.40;99.90;;;;;;5077808;28;20020;-72
2023/09/26 03:42:43;;;;;;;11.43;6.13;;;13.60;99.90;;;;;;5095916;28;20390;-72
2023/09/26 03:45:09;;;;;;;8.38;5.40;;;13.40;99.90;;;;;;5095784;28;20024;-72
2023/09/26 03:47:34;;;;;;;10.98;6.05;;;13.40;99.90;;;;;;5096048;28;20024;-72
2023/09/26 03:50:00;;;;;;;9.45;5.57;;;13.40;99.90;;;;;;5095805;28;20024;-72
2023/09/26 03:52:25;;;;;;;13.93;6.00;;;13.40;99.90;;;;;;5096546;28;20088;-72
2023/09/26 03:54:51;;;;;;;12.75;6.35;;;13.40;99.90;;;;;;5095519;28;20511;-72
2023/09/26 03:57:16;;;;;;;9.57;5.72;;;13.40;99.90;;;;;;5095866;28;20051;-72
2023/09/26 03:59:42;;;;;;;13.23;7.15;;;13.40;99.90;;;;;;5095809;28;20035;-72
2023/09/26 04:02:08;;;;;;;12.02;6.13;;;13.40;99.90;;;;;;5096253;28;20028;-72
2023/09/26 04:04:34;;;;;;;12.98;5.82;;;13.40;99.90;;;;;;5095825;28;20032;-72
2023/09/26 04:07:00;;;;;;;11.65;6.47;;;13.40;99.90;;;;;;5077440;28;20031;-72
2023/09/26 04:09:25;;;;;;;11.50;6.00;;;13.40;99.90;;;;;;5095603;28;20024;-72
2023/09/26 04:11:51;;;;;;;12.43;5.97;;;13.50;99.90;;;;;;5077498;28;20020;-72
2023/09/26 04:14:16;;;;;;;10.60;6.53;;;13.40;99.90;;;;;;5095111;28;20360;-72
2023/09/26 04:16:42;;;;;;;9.63;6.07;;;13.40;99.90;;;;;;5095447;28;20024;-72
2023/09/26 04:19:08;;;;;;;10.43;5.93;;;13.40;99.90;;;;;;5094134;28;20064;-72
2023/09/26 04:21:34;;;;;;;10.85;5.47;;;13.40;99.90;;;;;;5095392;28;20533;-72
2023/09/26 04:24:04;;;;;;;12.55;5.80;;;13.30;99.90;;;;;;5095249;28;20020;-72
2023/09/26 04:26:29;;;;;;;11.35;5.88;;;13.30;99.90;;;;;;5095023;28;20106;-72
2023/09/26 04:28:55;;;;;;;10.25;6.30;;;13.40;99.90;;;;;;5076870;28;20451;-72
2023/09/26 04:31:21;;;;;;;9.38;6.32;;;13.40;99.90;;;;;;5094929;28;20024;-72
2023/09/26 04:33:48;;;;;;;15.27;6.28;;;13.30;99.90;;;;;;5095519;28;20016;-72
2023/09/26 04:36:13;;;;;;;17.20;5.70;;;13.30;99.90;;;;;;5094843;28;20028;-72
2023/09/26 04:38:40;;;;;;;11.27;5.20;;;13.40;99.90;;;;;;5095113;28;20024;-72
2023/09/26 04:41:06;;;;;;;10.10;5.78;;;13.20;99.90;;;;;;5095570;28;20024;-72
2023/09/26 04:43:31;;;;;;;12.32;5.75;;;13.20;99.90;;;;;;5076774;28;20020;-71
2023/09/26 04:45:57;;;;;;;11.77;6.18;;;13.20;99.90;;;;;;5094626;28;20020;-72
2023/09/26 04:48:23;;;;;;;10.38;6.18;;;13.20;99.90;;;;;;5094699;28;20040;-72
2023/09/26 04:50:49;;;;;;;13.65;6.07;;;13.20;99.90;;;;;;5094715;28;20016;-72
2023/09/26 04:53:15;;;;;;;8.65;5.55;;;13.20;99.90;;;;;;5095157;28;20097;-72
2023/09/26 04:55:41;;;;;;;12.48;6.30;;;13.10;99.90;;;;;;5094515;28;20078;-72
2023/09/26 04:58:08;;;;;;;11.25;5.80;;;13.10;99.90;;;;;;5076257;28;20112;-72
2023/09/26 05:00:34;;;;;;;11.82;6.32;;;13.10;99.90;;;;;;5094642;28;20487;-72
2023/09/26 05:02:59;;;;;;;11.75;4.95;;;13.10;99.90;;;;;;5076952;28;20030;-72
2023/09/26 05:05:25;;;;;;;11.05;5.65;;;13.10;99.90;;;;;;5094543;28;20095;-72
2023/09/26 05:07:51;;;;;;;9.13;5.70;;;13.20;99.90;;;;;;5094187;28;20031;-72
2023/09/26 05:10:17;;;;;;;8.98;5.30;;;13.10;99.90;;;;;;5094883;28;20032;-72
2023/09/26 05:12:42;;;;;;;12.00;6.03;;;13.10;99.90;;;;;;5076022;28;20372;-72
2023/09/26 05:15:12;;;;;;;12.20;6.15;;;13.10;99.90;;;;;;5076104;28;20051;-72
2023/09/26 05:17:41;;;;;;;10.85;6.30;;;13.10;99.90;;;;;;5076054;28;20020;-72
2023/09/26 05:20:10;;;;;;;12.30;6.22;;;13.10;99.90;;;;;;5094824;28;20076;-72
2023/09/26 05:22:37;;;;;;;14.90;6.95;;;13.10;99.90;;;;;;5094185;28;20023;-72
2023/09/26 05:25:03;;;;;;;10.15;5.95;;;13.10;99.90;;;;;;5075686;28;20399;-72
2023/09/26 05:27:28;;;;;;;10.73;6.45;;;13.10;99.90;;;;;;5094457;28;20024;-71
2023/09/26 05:29:55;;;;;;;12.57;6.25;;;13.10;99.90;;;;;;5075739;28;20035;-71
2023/09/26 05:32:20;;;;;;;10.23;6.45;;;13.10;99.90;;;;;;5093970;28;20024;-72
2023/09/26 05:34:46;;;;;;;12.15;6.10;;;13.20;99.90;;;;;;5093980;28;20047;-72
2023/09/26 05:37:11;;;;;;;15.55;6.75;;;13.20;99.90;;;;;;5094033;28;20020;-71
2023/09/26 05:39:37;;;;;;;11.13;6.07;;;13.20;99.90;;;;;;5075647;28;20024;-72
2023/09/26 05:42:03;;;;;;;17.02;6.38;;;13.20;99.90;;;;;;5093775;28;20036;-73
2023/09/26 05:44:28;;;;;;;12.07;6.18;;;13.20;99.90;;;;;;5093620;28;20020;-74
2023/09/26 05:46:54;;;;;;;12.45;6.88;;;13.20;99.90;;;;;;5093738;28;20020;-73
2023/09/26 05:49:22;;;;;;;13.15;7.25;;;13.30;99.90;;;;;;5093224;28;20031;-73
2023/09/26 05:51:48;;;;;;;13.23;6.68;;;13.00;99.90;;;;;;5093528;28;20016;-72
2023/09/26 05:54:13;;;;;;;16.00;5.85;;;13.20;99.90;;;;;;5092970;28;20043;-73
2023/09/26 05:56:39;;;;;;;19.52;7.05;;;13.30;99.90;;;;;;5093460;28;20090;-73
2023/09/26 05:59:04;;;;;;;11.95;6.95;;;13.30;99.90;;;;;;5093264;28;20046;-73
2023/09/26 06:01:30;;;;;;;10.68;6.72;;;13.40;99.90;;;;;;5094007;28;20039;-72
2023/09/26 06:03:55;;;;;;;10.80;6.60;;;13.30;99.90;;;;;;5093049;28;20076;-73
2023/09/26 06:06:21;;;;;;;11.95;7.05;;;13.40;99.90;;;;;;5075180;28;20024;-73
2023/09/26 06:08:47;;;;;;;13.50;6.68;;;13.40;99.90;;;;;;5092739;28;20073;-73
2023/09/26 06:11:14;;;;;;;13.35;6.53;;;13.50;99.90;;;;;;5091895;28;20087;-73
2023/09/26 06:13:42;;;;;;;12.43;7.20;;;13.50;99.90;;;;;;5091539;28;20050;-73
2023/09/26 06:16:08;;;;;;;13.70;7.07;;;13.60;99.90;;;;;;5091511;28;20012;-73
2023/09/26 06:18:33;;;;;;;12.80;6.82;;;13.60;99.90;;;;;;5093082;28;20020;-73
2023/09/26 06:21:03;;;;;;;14.75;8.10;;;13.70;99.90;;;;;;5091964;28;20320;-73
2023/09/26 06:23:30;;;;;;;14.95;7.15;;;13.80;99.90;;;;;;5092992;28;20019;-72
2023/09/26 06:25:58;;;;;;;10.10;6.38;;;13.80;99.90;;;;;;5093125;28;20044;-72
2023/09/26 06:28:24;;;;;;;13.43;7.13;;;13.90;99.90;;;;;;5094246;28;20020;-73
2023/09/26 06:30:49;;;;;;;17.38;7.47;;;13.90;99.90;;;;;;5093094;28;20078;-72
2023/09/26 06:33:16;;;;;;;15.07;7.22;;;14.10;99.90;;;;;;5093127;28;20383;-73
2023/09/26 06:35:41;;;;;;;12.32;7.18;;;14.10;99.90;;;;;;5093074;28;20017;-73
2023/09/26 06:38:07;;;;;;;11.23;6.82;;;14.10;99.90;;;;;;5092968;28;20024;-73
2023/09/26 06:40:32;;;;;;;10.95;6.60;;;14.20;99.90;;;;;;5093136;28;20032;-73
2023/09/26 06:43:00;;;;;;;18.27;7.47;;;14.30;99.90;;;;;;5096616;28;20154;-73
2023/09/26 06:45:27;;;;;;;11.80;7.15;;;14.40;99.90;;;;;;5097190;28;20027;-73
2023/09/26 06:47:53;;;;;;;10.05;6.40;;;14.50;99.90;;;;;;5096897;28;20103;-73
2023/09/26 06:50:19;;;;;;;13.27;7.53;;;14.60;99.90;;;;;;5078585;28;20505;-72
2023/09/26 06:52:44;;;;;;;13.85;7.07;;;14.70;99.90;;;;;;5078635;28;20425;-73
2023/09/26 06:55:10;;;;;;;10.82;6.65;;;14.70;99.90;;;;;;5096798;28;20039;-73
2023/09/26 06:57:37;;;;;;;12.02;7.03;;;14.80;99.90;;;;;;5096920;28;20055;-73
2023/09/26 07:00:12;;;;;;;9.52;6.40;;;14.90;99.90;;;;;;5096581;28;20028;-72
2023/09/26 07:02:39;;;;;;;11.55;6.53;;;14.90;99.90;;;;;;5097102;28;20383;-72
2023/09/26 07:05:06;;;;;;;10.95;7.47;;;15.00;99.90;;;;;;5096478;28;20031;-72
2023/09/26 07:07:31;;;;;;;11.25;6.60;;;15.10;99.90;;;;;;5096530;28;20027;-72
2023/09/26 07:09:58;;;;;;;9.75;5.97;;;15.20;99.90;;;;;;5096567;28;20032;-72
2023/09/26 07:12:26;;;;;;;10.25;6.60;;;15.20;99.90;;;;;;5096338;28;20020;-73
2023/09/26 07:14:56;;;;;;;11.40;6.82;;;15.20;99.90;;;;;;5096469;28;20065;-72
2023/09/26 07:17:22;;;;;;;13.95;7.28;;;15.30;99.90;;;;;;5096337;28;20031;-73
2023/09/26 07:19:48;;;;;;;10.50;6.50;;;15.40;99.90;;;;;;5096358;28;20016;-73
2023/09/26 07:22:15;;;;;;;11.00;6.55;;;15.50;99.90;;;;;;5096276;28;20020;-73
2023/09/26 07:24:40;;;;;;;12.05;5.97;;;15.50;99.90;;;;;;5096184;28;20062;-73
2023/09/26 07:27:07;;;;;;;13.93;6.72;;;15.60;99.90;;;;;;5096192;28;20495;-73
2023/09/26 07:29:32;;;;;;;10.13;6.70;;;15.70;99.90;;;;;;5096079;28;20020;-72
2023/09/26 07:31:58;;;;;;;15.75;6.35;;;15.70;99.90;;;;;;5096691;28;20471;-72
2023/09/26 07:34:23;;;;;;;10.98;6.40;;;15.80;99.90;;;;;;5096052;28;20020;-73
2023/09/26 07:36:49;;;;;;;11.15;6.40;;;15.90;99.90;;;;;;5096002;28;20115;-73
2023/09/26 07:39:16;;;;;;;11.07;6.38;;;16.00;99.90;;;;;;5096013;28;20032;-73
2023/09/26 07:41:41;;;;;;;9.73;5.63;;;16.00;99.90;;;;;;5078002;28;20024;-72
2023/09/26 07:44:07;;;;;;;12.25;6.28;;;16.10;99.90;;;;;;5095879;28;20035;-72
2023/09/26 07:46:32;;;;;;;8.60;5.10;;;16.20;99.90;;;;;;5095686;28;20407;-73
2023/09/26 07:48:58;;;;;;;9.77;5.80;;;16.20;99.90;;;;;;5095700;28;20060;-73
2023/09/26 07:51:23;;;;;;;13.20;5.22;;;16.10;99.90;;;;;;5095764;28;20058;-73
2023/09/26 07:53:49;;;;;;;7.93;5.40;;;16.10;99.90;;;;;;5095423;28;20020;-72
2023/09/26 07:56:14;;;;;;;11.80;5.60;;;16.10;99.90;;;;;;5095445;28;20433;-73
2023/09/26 07:58:40;;;;;;;10.70;5.30;;;16.10;99.90;;;;;;5095542;28;20549;-72
2023/09/26 08:01:09;;;;;;;10.32;5.82;;;16.10;99.90;;;;;;5095574;28;20028;-72
2023/09/26 08:03:38;;;;;;;12.60;6.53;;;16.20;99.90;;;;;;5095480;28;20020;-73
2023/09/26 08:06:05;;;;;;;8.13;5.35;;;16.20;99.90;;;;;;5095315;28;20028;-73
2023/09/26 08:08:31;;;;;;;10.38;5.70;;;16.30;99.90;;;;;;5077329;28;20180;-73
2023/09/26 08:11:08;;;;;;;11.15;5.63;;;16.40;99.90;;;;;;5095283;28;20515;-73
2023/09/26 08:13:34;;;;;;;8.30;5.00;;;16.60;99.90;;;;;;5095296;28;20020;-73
2023/09/26 08:16:00;;;;;;;12.00;5.25;;;16.70;99.90;;;;;;5095020;28;20107;-73
2023/09/26 08:18:26;;;;;;;7.70;5.03;;;16.90;99.90;;;;;;5095166;28;20048;-72
2023/09/26 08:20:55;;;;;;;8.45;5.32;;;16.90;99.90;;;;;;5095254;28;20024;-73
2023/09/26 08:23:21;;;;;;;10.45;5.43;;;17.00;99.90;;;;;;5095672;28;20012;-73
2023/09/26 08:25:47;;;;;;;8.90;5.40;;;17.10;99.90;;;;;;5095067;28;20020;-73
2023/09/26 08:28:12;;;;;;;11.55;4.78;;;17.20;99.90;;;;;;5095596;28;20584;-73
2023/09/26 08:30:38;;;;;;;10.02;4.97;;;17.40;99.90;;;;;;5094866;28;20027;-73
2023/09/26 08:33:04;;;;;;;10.80;5.40;;;17.40;99.90;;;;;;5094933;28;20016;-73
2023/09/26 08:35:32;;;;;;;9.43;4.50;;;17.50;99.90;;;;;;5094914;28;20017;-72
2023/09/26 08:37:57;;;;;;;8.13;4.68;;;17.60;99.90;;;;;;5094842;28;20067;-72
2023/09/26 08:40:27;;;;;;;8.27;4.80;;;17.50;99.90;;;;;;5095285;28;20035;-72
2023/09/26 08:42:57;;;;;;;10.43;4.90;;;17.60;99.90;;;;;;5094729;28;20413;-73
2023/09/26 08:45:27;;;;;;;11.02;4.38;;;17.80;99.90;;;;;;5094455;28;20062;-73
2023/09/26 08:47:54;;;;;;;8.52;4.38;;;17.90;99.90;;;;;;5094942;28;20035;-72
2023/09/26 08:50:24;;;;;;;10.48;4.68;;;18.00;99.90;;;;;;5094509;28;20479;-72
2023/09/26 08:52:49;;;;;;;8.93;5.03;;;18.10;99.90;;;;;;5095207;28;20477;-72
2023/09/26 08:55:15;;;;;;;9.13;4.57;;;18.10;99.90;;;;;;5094357;28;20028;-72
2023/09/26 08:57:41;;;;;;;6.53;4.00;;;18.20;99.90;;;;;;5094576;28;20100;-73
2023/09/26 09:00:09;;;;;;;12.13;5.13;;;18.20;99.90;;;;;;5094428;28;20069;-73
2023/09/26 09:02:34;;;;;;;8.13;4.07;;;18.30;99.90;;;;;;5094577;28;20098;-72
2023/09/26 09:05:00;;;;;;;6.85;3.92;;;18.40;99.90;;;;;;5075515;28;20443;-72
2023/09/26 09:07:26;;;;;;;8.90;4.05;;;18.60;99.90;;;;;;5094415;28;20077;-72
2023/09/26 09:10:05;;;;;;;4.82;3.78;;;18.80;99.90;;;;;;5094117;28;20499;-73
2023/09/26 09:12:30;;;;;;;6.55;4.20;;;18.80;99.90;;;;;;5094255;28;20078;-73
2023/09/26 09:14:56;;;;;;;13.85;3.83;;;18.90;99.90;;;;;;5094215;28;20024;-73
2023/09/26 09:17:22;;;;;;;5.90;3.70;;;19.10;99.90;;;;;;5094082;28;20479;-73
2023/09/26 09:19:49;;;;;;;8.23;3.97;;;19.20;99.90;;;;;;5094508;28;20430;-72
2023/09/26 09:22:19;;;;;;;7.57;4.07;;;19.30;99.90;;;;;;5093930;28;20024;-72
2023/09/26 09:24:53;;;;;;;7.43;4.18;;;19.50;99.90;;;;;;5093799;28;20483;-72
2023/09/26 09:27:31;;;;;;;7.70;3.95;;;19.60;99.90;;;;;;5094103;28;20028;-72
2023/09/26 09:30:07;;;;;;;10.45;3.83;;;19.60;99.90;;;;;;5094268;28;20024;-73
2023/09/26 09:32:36;;;;;;;5.13;2.95;;;19.80;99.90;;;;;;5093927;28;20031;-72
2023/09/26 09:35:03;;;;;;;3.95;2.70;;;19.70;99.90;;;;;;5093742;28;20061;-73
2023/09/26 09:37:29;;;;;;;4.70;3.25;;;19.80;99.90;;;;;;5093718;28;20095;-72
2023/09/26 09:39:55;;;;;;;8.18;3.42;;;19.70;99.90;;;;;;5093643;28;20505;-73
2023/09/26 09:42:22;;;;;;;4.25;3.30;;;19.70;99.90;;;;;;5075671;28;20055;-73
2023/09/26 09:44:48;;;;;;;4.63;2.83;;;19.70;99.90;;;;;;5093650;28;20039;-72
2023/09/26 09:47:22;;;;;;;5.70;2.45;;;19.60;99.90;;;;;;5093773;28;20429;-72
2023/09/26 09:49:49;;;;;;;7.10;2.88;;;19.60;99.90;;;;;;5093504;28;20044;-72
2023/09/26 09:52:18;;;;;;;10.73;3.22;;;19.60;99.90;;;;;;5075507;28;20023;-73
2023/09/26 09:54:45;;;;;;;8.07;2.83;;;19.70;99.90;;;;;;5093416;28;20495;-73
2023/09/26 09:57:17;;;;;;;5.35;3.00;;;19.60;99.90;;;;;;5093491;28;20498;-72
2023/09/26 09:59:47;;;;;;;6.07;2.58;;;19.60;99.90;;;;;;5093467;28;20024;-73
2023/09/26 10:02:17;;;;;;;4.35;2.50;;;19.60;99.90;;;;;;5093612;28;20426;-72
2023/09/26 10:04:47;;;;;;;7.35;2.70;;;19.60;99.90;;;;;;5093235;28;20073;-72
2023/09/26 10:07:14;;;;;;;7.40;3.22;;;19.60;99.90;;;;;;5093449;28;20447;-72
2023/09/26 10:09:42;;;;;;;3.85;2.63;;;19.70;99.90;;;;;;5075202;28;20024;-72
2023/09/26 10:12:09;;;;;;;6.63;3.07;;;19.70;99.90;;;;;;5093464;28;20035;-73
2023/09/26 10:14:35;;;;;;;4.70;1.90;;;19.70;99.90;;;;;;5093294;28;20414;-72
2023/09/26 10:17:02;;;;;;;7.72;3.13;;;19.80;99.90;;;;;;5095294;28;20099;-72
2023/09/26 10:19:28;;;;;;;4.80;2.40;;;19.90;99.90;;;;;;5097398;28;20012;-72
2023/09/26 10:22:16;;;;;;;5.43;3.20;;;19.90;99.90;;;;;;5097416;28;20031;-72
2023/09/26 10:24:53;;;;;;;5.80;2.70;;;20.00;99.90;;;;;;5097308;28;20051;-72
2023/09/26 10:27:30;;;;;;;5.80;2.83;;;20.00;99.90;;;;;;5097303;28;20487;-72
2023/09/26 10:29:56;;;;;;;4.50;2.97;;;20.10;99.90;;;;;;5097192;28;20024;-72
2023/09/26 10:32:34;;;;;;;6.35;3.63;;;20.30;99.90;;;;;;5097192;28;20391;-72
2023/09/26 10:35:22;;;;;;;4.43;3.22;;;20.50;99.90;;;;;;5079045;28;20566;-72
2023/09/26 10:38:00;;;;;;;4.68;2.92;;;20.60;99.90;;;;;;5097164;28;20047;-73
2023/09/26 10:40:26;;;;;;;4.95;2.90;;;20.60;99.90;;;;;;5097268;28;20028;-72
2023/09/26 10:42:52;;;;;;;7.57;2.97;;;20.70;99.90;;;;;;5096978;28;20502;-72
2023/09/26 10:45:17;;;;;;;6.60;2.42;;;20.90;99.90;;;;;;5096993;28;20020;-72
2023/09/26 10:47:44;;;;;;;5.63;2.97;;;21.10;99.90;;;;;;5096840;28;20035;-72
2023/09/26 10:50:14;;;;;;;5.40;2.60;;;21.20;99.90;;;;;;5096840;28;20122;-73
2023/09/26 10:52:49;;;;;;;9.75;2.42;;;21.30;99.90;;;;;;5096884;28;20020;-72
2023/09/26 10:55:20;;;;;;;5.68;2.58;;;21.40;99.90;;;;;;5078519;28;20066;-72
2023/09/26 10:57:46;;;;;;;3.75;2.67;;;21.60;99.90;;;;;;5097228;28;20016;-72
2023/09/26 11:00:14;;;;;;;6.88;2.88;;;21.70;99.90;;;;;;5096705;28;20396;-72
2023/09/26 11:02:41;;;;;;;10.02;3.53;;;21.70;99.90;;;;;;5096499;28;20035;-73
2023/09/26 11:05:11;;;;;;;6.60;2.90;;;21.90;99.90;;;;;;5096415;28;20020;-72
2023/09/26 11:07:38;;;;;;;5.07;2.90;;;22.10;99.90;;;;;;5096521;28;20474;-73
2023/09/26 11:10:04;;;;;;;4.38;2.40;;;22.40;99.90;;;;;;5096368;28;20027;-72
2023/09/26 11:12:33;;;;;;;5.70;2.50;;;22.50;99.90;;;;;;5096423;28;20024;-72
2023/09/26 11:14:59;;;;;;;6.20;2.50;;;22.60;99.90;;;;;;5096293;28;20047;-72
2023/09/26 11:17:27;;;;;;;4.10;2.10;;;22.90;99.90;;;;;;5096829;28;20020;-72
2023/09/26 11:19:57;;;;;;;7.22;2.45;;;23.00;99.90;;;;;;5096385;28;20144;-72
2023/09/26 11:22:23;;;;;;;6.15;3.40;;;23.20;99.90;;;;;;5096759;28;20028;-73
2023/09/26 11:24:48;;;;;;;3.65;1.98;;;23.20;99.90;;;;;;5096244;28;20028;-73
2023/09/26 11:27:14;;;;;;;4.30;2.03;;;23.20;99.90;;;;;;5095576;28;20490;-73
2023/09/26 11:29:40;;;;;;;4.82;2.00;;;23.30;99.90;;;;;;5095969;28;20449;-72
2023/09/26 11:32:06;;;;;;;3.53;2.13;;;23.50;99.90;;;;;;5096080;28;20020;-73
2023/09/26 11:34:34;;;;;;;4.95;2.38;;;23.60;99.90;;;;;;5077721;28;20024;-73
2023/09/26 11:37:00;;;;;;;4.10;1.92;;;23.80;99.90;;;;;;5077778;28;20069;-72
2023/09/26 11:39:26;;;;;;;5.18;1.98;;;24.00;99.90;;;;;;5077726;28;20364;-72
2023/09/26 11:42:11;;;;;;;5.43;2.20;;;24.10;99.90;;;;;;5095829;28;20038;-73
2023/09/26 11:44:37;;;;;;;6.07;2.17;;;24.20;99.90;;;;;;5077597;28;20085;-72
2023/09/26 11:47:05;;;;;;;1.75;1.60;;;24.20;99.90;;;;;;5095739;28;20024;-72
2023/09/26 11:49:30;;;;;;;4.63;1.83;;;24.10;99.90;;;;;;5095758;28;20429;-72
2023/09/26 11:51:59;;;;;;;3.90;2.13;;;24.00;99.90;;;;;;5096143;28;20017;-72
2023/09/26 11:54:25;;;;;;;2.95;1.23;;;23.90;99.90;;;;;;5077299;28;20028;-72
2023/09/26 11:56:52;;;;;;;5.07;1.80;;;23.90;99.90;;;;;;5095632;28;20061;-73
2023/09/26 11:59:17;;;;;;;4.13;1.60;;;24.00;99.90;;;;;;5095515;28;20053;-72
2023/09/26 12:01:43;;;;;;;2.70;1.65;;;24.20;99.90;;;;;;5095542;28;20554;-72
2023/09/26 12:04:13;;;;;;;4.28;1.92;;;24.60;99.90;;;;;;5095288;28;20476;-72
2023/09/26 12:06:40;;;;;;;5.05;1.60;;;24.90;99.90;;;;;;5095529;28;20028;-72
2023/09/26 12:09:29;;;;;;;5.00;1.98;;;25.10;99.90;;;;;;5095310;28;20016;-72
2023/09/26 12:11:55;;;;;;;3.78;2.00;;;25.20;99.90;;;;;;5095863;28;20074;-72
2023/09/26 12:14:21;;;;;;;3.95;1.65;;;25.20;99.90;;;;;;5095496;28;20016;-73
2023/09/26 12:16:51;;;;;;;4.60;2.08;;;25.20;99.90;;;;;;5095622;28;20024;-72
2023/09/26 12:19:18;;;;;;;3.75;1.70;;;25.30;99.90;;;;;;5095086;28;20047;-72
2023/09/26 12:21:43;;;;;;;4.20;1.38;;;25.40;99.90;;;;;;5095151;28;20435;-72
2023/09/26 12:24:09;;;;;;;4.07;1.30;;;25.30;99.90;;;;;;5094980;28;20055;-72
2023/09/26 12:26:37;;;;;;;3.63;1.80;;;25.20;99.90;;;;;;5076847;28;20110;-72
2023/09/26 12:29:04;;;;;;;2.88;1.45;;;25.00;99.90;;;;;;5094837;28;20094;-72
2023/09/26 12:31:30;;;;;;;2.72;1.38;;;24.80;99.90;;;;;;5095426;28;20464;-72
2023/09/26 12:33:55;;;;;;;2.30;1.00;;;24.80;99.90;;;;;;5094943;28;20030;-72
2023/09/26 12:36:21;;;;;;;2.65;0.93;;;24.90;99.90;;;;;;5094711;28;20024;-73
2023/09/26 12:38:46;;;;;;;1.42;0.80;;;24.90;99.90;;;;;;5094200;28;20021;-72
2023/09/26 12:41:12;;;;;;;2.38;0.40;;;24.70;99.90;;;;;;5094452;28;20021;-72